sensor_id;sensor_type;location;lat;lon;timestamp;P1;durP1;ratioP1;P2;durP2;ratioP2
579;SDS011;276;48.392;9.950;2023-03-01T00:00:39;17.43;;;15.73;;
579;SDS011;276;48.392;9.950;2023-03-01T00:03:11;17.70;;;15.90;;
579;SDS011;276;48.392;9.950;2023-03-01T00:05:42;18.53;;;16.70;;
579;SDS011;276;48.392;9.950;2023-03-01T00:08:10;17.00;;;15.30;;
579;SDS011;276;48.392;9.950;2023-03-01T00:10:35;19.90;;;17.50;;
579;SDS011;276;48.392;9.950;2023-03-01T00:13:01;19.20;;;16.30;;
579;SDS011;276;48.392;9.950;2023-03-01T00:15:26;15.90;;;14.40;;
579;SDS011;276;48.392;9.950;2023-03-01T00:17:52;17.93;;;16.07;;
579;SDS011;276;48.392;9.950;2023-03-01T00:20:17;18.00;;;16.10;;
579;SDS011;276;48.392;9.950;2023-03-01T00:22:43;18.67;;;16.83;;
579;SDS011;276;48.392;9.950;2023-03-01T00:25:11;19.50;;;16.27;;
579;SDS011;276;48.392;9.950;2023-03-01T00:27:37;18.13;;;15.87;;
579;SDS011;276;48.392;9.950;2023-03-01T00:30:05;18.80;;;17.00;;
579;SDS011;276;48.392;9.950;2023-03-01T00:32:32;17.00;;;14.87;;
579;SDS011;276;48.392;9.950;2023-03-01T00:34:57;18.93;;;16.23;;
579;SDS011;276;48.392;9.950;2023-03-01T00:37:27;19.63;;;15.97;;
579;SDS011;276;48.392;9.950;2023-03-01T00:39:53;17.77;;;16.00;;
579;SDS011;276;48.392;9.950;2023-03-01T00:42:18;17.43;;;15.00;;
579;SDS011;276;48.392;9.950;2023-03-01T00:44:44;20.70;;;17.87;;
579;SDS011;276;48.392;9.950;2023-03-01T00:47:10;18.90;;;16.57;;
579;SDS011;276;48.392;9.950;2023-03-01T00:49:35;17.90;;;16.00;;
579;SDS011;276;48.392;9.950;2023-03-01T00:52:01;18.70;;;16.70;;
579;SDS011;276;48.392;9.950;2023-03-01T00:54:26;18.33;;;15.70;;
579;SDS011;276;48.392;9.950;2023-03-01T00:56:52;20.57;;;18.40;;
579;SDS011;276;48.392;9.950;2023-03-01T00:59:18;17.10;;;15.30;;
579;SDS011;276;48.392;9.950;2023-03-01T01:01:43;18.33;;;16.43;;
579;SDS011;276;48.392;9.950;2023-03-01T01:04:10;18.07;;;16.20;;
579;SDS011;276;48.392;9.950;2023-03-01T01:06:38;18.10;;;16.27;;
579;SDS011;276;48.392;9.950;2023-03-01T01:09:08;19.20;;;17.27;;
579;SDS011;276;48.392;9.950;2023-03-01T01:11:41;17.17;;;15.33;;
579;SDS011;276;48.392;9.950;2023-03-01T01:14:14;19.37;;;16.00;;
579;SDS011;276;48.392;9.950;2023-03-01T01:16:41;18.40;;;16.53;;
579;SDS011;276;48.392;9.950;2023-03-01T01:19:06;18.43;;;16.50;;
579;SDS011;276;48.392;9.950;2023-03-01T01:21:35;21.20;;;18.90;;
579;SDS011;276;48.392;9.950;2023-03-01T01:24:02;20.37;;;16.67;;
579;SDS011;276;48.392;9.950;2023-03-01T01:26:31;17.33;;;15.67;;
579;SDS011;276;48.392;9.950;2023-03-01T01:28:58;18.27;;;16.47;;
579;SDS011;276;48.392;9.950;2023-03-01T01:31:24;20.70;;;18.30;;
579;SDS011;276;48.392;9.950;2023-03-01T01:33:51;23.73;;;19.50;;
579;SDS011;276;48.392;9.950;2023-03-01T01:36:20;20.87;;;16.93;;
579;SDS011;276;48.392;9.950;2023-03-01T01:38:46;18.63;;;16.10;;
579;SDS011;276;48.392;9.950;2023-03-01T01:41:12;18.20;;;16.43;;
579;SDS011;276;48.392;9.950;2023-03-01T01:43:40;17.90;;;16.10;;
579;SDS011;276;48.392;9.950;2023-03-01T01:48:55;23.47;;;18.30;;
579;SDS011;276;48.392;9.950;2023-03-01T01:51:24;17.13;;;15.33;;
579;SDS011;276;48.392;9.950;2023-03-01T01:53:58;18.80;;;15.60;;
579;SDS011;276;48.392;9.950;2023-03-01T01:56:30;17.83;;;16.03;;
579;SDS011;276;48.392;9.950;2023-03-01T01:58:56;17.50;;;15.40;;
579;SDS011;276;48.392;9.950;2023-03-01T02:01:24;18.50;;;16.63;;
579;SDS011;276;48.392;9.950;2023-03-01T02:03:50;18.10;;;16.30;;
579;SDS011;276;48.392;9.950;2023-03-01T02:06:22;19.20;;;16.97;;
579;SDS011;276;48.392;9.950;2023-03-01T02:09:05;16.57;;;14.97;;
579;SDS011;276;48.392;9.950;2023-03-01T02:11:37;17.70;;;15.93;;
579;SDS011;276;48.392;9.950;2023-03-01T02:14:03;20.87;;;16.67;;
579;SDS011;276;48.392;9.950;2023-03-01T02:16:31;18.33;;;16.00;;
579;SDS011;276;48.392;9.950;2023-03-01T02:18:58;18.27;;;16.60;;
579;SDS011;276;48.392;9.950;2023-03-01T02:21:34;18.03;;;16.33;;
579;SDS011;276;48.392;9.950;2023-03-01T02:24:29;18.63;;;16.17;;
579;SDS011;276;48.392;9.950;2023-03-01T02:26:56;17.13;;;15.40;;
579;SDS011;276;48.392;9.950;2023-03-01T02:29:23;18.23;;;16.30;;
579;SDS011;276;48.392;9.950;2023-03-01T02:31:49;18.47;;;16.33;;
579;SDS011;276;48.392;9.950;2023-03-01T02:34:18;17.47;;;15.67;;
579;SDS011;276;48.392;9.950;2023-03-01T02:39:46;18.30;;;16.43;;
579;SDS011;276;48.392;9.950;2023-03-01T02:42:15;18.80;;;16.97;;
579;SDS011;276;48.392;9.950;2023-03-01T02:44:48;19.50;;;17.60;;
579;SDS011;276;48.392;9.950;2023-03-01T02:47:15;20.83;;;18.73;;
579;SDS011;276;48.392;9.950;2023-03-01T02:49:43;17.37;;;15.53;;
579;SDS011;276;48.392;9.950;2023-03-01T02:52:21;20.97;;;16.77;;
579;SDS011;276;48.392;9.950;2023-03-01T02:55:11;20.30;;;18.10;;
579;SDS011;276;48.392;9.950;2023-03-01T02:57:40;18.50;;;16.60;;
579;SDS011;276;48.392;9.950;2023-03-01T03:00:13;20.57;;;18.20;;
579;SDS011;276;48.392;9.950;2023-03-01T03:02:49;22.60;;;17.50;;
579;SDS011;276;48.392;9.950;2023-03-01T03:05:18;20.37;;;18.07;;
579;SDS011;276;48.392;9.950;2023-03-01T03:07:49;17.90;;;16.10;;
579;SDS011;276;48.392;9.950;2023-03-01T03:10:19;18.07;;;15.90;;
579;SDS011;276;48.392;9.950;2023-03-01T03:12:53;19.57;;;17.67;;
579;SDS011;276;48.392;9.950;2023-03-01T03:15:25;18.93;;;16.77;;
579;SDS011;276;48.392;9.950;2023-03-01T03:17:52;20.60;;;17.10;;
579;SDS011;276;48.392;9.950;2023-03-01T03:20:19;20.30;;;17.43;;
579;SDS011;276;48.392;9.950;2023-03-01T03:22:52;19.50;;;17.03;;
579;SDS011;276;48.392;9.950;2023-03-01T03:25:19;19.67;;;17.57;;
579;SDS011;276;48.392;9.950;2023-03-01T03:27:46;18.43;;;16.53;;
579;SDS011;276;48.392;9.950;2023-03-01T03:30:24;19.63;;;17.00;;
579;SDS011;276;48.392;9.950;2023-03-01T03:32:51;23.00;;;18.97;;
579;SDS011;276;48.392;9.950;2023-03-01T03:35:20;18.87;;;16.43;;
579;SDS011;276;48.392;9.950;2023-03-01T03:37:55;20.43;;;18.03;;
579;SDS011;276;48.392;9.950;2023-03-01T03:40:28;20.40;;;18.30;;
579;SDS011;276;48.392;9.950;2023-03-01T03:42:55;21.33;;;17.67;;
579;SDS011;276;48.392;9.950;2023-03-01T03:45:21;19.83;;;17.27;;
579;SDS011;276;48.392;9.950;2023-03-01T03:47:51;19.40;;;17.40;;
579;SDS011;276;48.392;9.950;2023-03-01T03:50:17;22.20;;;19.93;;
579;SDS011;276;48.392;9.950;2023-03-01T03:52:43;21.57;;;19.10;;
579;SDS011;276;48.392;9.950;2023-03-01T03:55:12;20.87;;;18.27;;
579;SDS011;276;48.392;9.950;2023-03-01T03:57:45;19.20;;;17.20;;
579;SDS011;276;48.392;9.950;2023-03-01T04:00:16;20.33;;;18.33;;
579;SDS011;276;48.392;9.950;2023-03-01T04:02:47;20.23;;;18.20;;
579;SDS011;276;48.392;9.950;2023-03-01T04:05:14;20.23;;;17.77;;
579;SDS011;276;48.392;9.950;2023-03-01T04:07:43;20.77;;;18.67;;
579;SDS011;276;48.392;9.950;2023-03-01T04:10:14;18.83;;;16.80;;
579;SDS011;276;48.392;9.950;2023-03-01T04:12:41;23.10;;;18.40;;
579;SDS011;276;48.392;9.950;2023-03-01T04:15:10;18.60;;;16.57;;
579;SDS011;276;48.392;9.950;2023-03-01T04:20:06;19.90;;;17.80;;
579;SDS011;276;48.392;9.950;2023-03-01T04:22:37;19.73;;;17.63;;
579;SDS011;276;48.392;9.950;2023-03-01T04:25:03;22.43;;;18.93;;
579;SDS011;276;48.392;9.950;2023-03-01T04:27:31;23.70;;;21.20;;
579;SDS011;276;48.392;9.950;2023-03-01T04:30:00;21.40;;;18.43;;
579;SDS011;276;48.392;9.950;2023-03-01T04:32:31;19.83;;;16.63;;
579;SDS011;276;48.392;9.950;2023-03-01T04:34:56;20.47;;;16.40;;
579;SDS011;276;48.392;9.950;2023-03-01T04:37:25;20.50;;;18.40;;
579;SDS011;276;48.392;9.950;2023-03-01T04:39:54;19.50;;;17.70;;
579;SDS011;276;48.392;9.950;2023-03-01T04:42:20;20.23;;;18.13;;
579;SDS011;276;48.392;9.950;2023-03-01T04:44:45;19.40;;;17.50;;
579;SDS011;276;48.392;9.950;2023-03-01T04:47:11;21.23;;;18.07;;
579;SDS011;276;48.392;9.950;2023-03-01T04:49:37;20.90;;;18.63;;
579;SDS011;276;48.392;9.950;2023-03-01T04:52:08;19.73;;;16.90;;
579;SDS011;276;48.392;9.950;2023-03-01T04:54:34;19.67;;;17.53;;
579;SDS011;276;48.392;9.950;2023-03-01T04:57:01;21.63;;;19.30;;
579;SDS011;276;48.392;9.950;2023-03-01T04:59:28;18.90;;;17.10;;
579;SDS011;276;48.392;9.950;2023-03-01T05:01:56;21.57;;;19.30;;
579;SDS011;276;48.392;9.950;2023-03-01T05:04:25;21.97;;;19.40;;
579;SDS011;276;48.392;9.950;2023-03-01T05:06:50;22.27;;;19.77;;
579;SDS011;276;48.392;9.950;2023-03-01T05:09:18;22.33;;;17.50;;
579;SDS011;276;48.392;9.950;2023-03-01T05:11:44;27.20;;;20.60;;
579;SDS011;276;48.392;9.950;2023-03-01T05:14:10;21.10;;;19.00;;
579;SDS011;276;48.392;9.950;2023-03-01T05:16:37;20.53;;;18.43;;
579;SDS011;276;48.392;9.950;2023-03-01T05:19:03;25.20;;;21.20;;
579;SDS011;276;48.392;9.950;2023-03-01T05:21:39;20.43;;;17.90;;
579;SDS011;276;48.392;9.950;2023-03-01T05:24:25;23.67;;;18.10;;
579;SDS011;276;48.392;9.950;2023-03-01T05:26:54;20.83;;;18.67;;
579;SDS011;276;48.392;9.950;2023-03-01T05:29:22;18.43;;;16.50;;
579;SDS011;276;48.392;9.950;2023-03-01T05:31:52;21.07;;;18.87;;
579;SDS011;276;48.392;9.950;2023-03-01T05:34:22;19.83;;;17.80;;
579;SDS011;276;48.392;9.950;2023-03-01T05:36:52;21.80;;;19.50;;
579;SDS011;276;48.392;9.950;2023-03-01T05:39:21;19.20;;;17.20;;
579;SDS011;276;48.392;9.950;2023-03-01T05:41:51;20.07;;;18.00;;
579;SDS011;276;48.392;9.950;2023-03-01T05:44:20;20.07;;;17.93;;
579;SDS011;276;48.392;9.950;2023-03-01T05:46:46;21.87;;;19.60;;
579;SDS011;276;48.392;9.950;2023-03-01T05:49:12;23.10;;;18.90;;
579;SDS011;276;48.392;9.950;2023-03-01T05:51:38;20.07;;;17.93;;
579;SDS011;276;48.392;9.950;2023-03-01T05:54:08;20.27;;;16.50;;
579;SDS011;276;48.392;9.950;2023-03-01T05:56:35;20.90;;;17.60;;
579;SDS011;276;48.392;9.950;2023-03-01T05:59:02;21.50;;;18.03;;
579;SDS011;276;48.392;9.950;2023-03-01T06:01:29;20.73;;;17.93;;
579;SDS011;276;48.392;9.950;2023-03-01T06:03:58;21.93;;;19.57;;
579;SDS011;276;48.392;9.950;2023-03-01T06:06:24;21.53;;;19.17;;
579;SDS011;276;48.392;9.950;2023-03-01T06:08:50;24.00;;;19.50;;
579;SDS011;276;48.392;9.950;2023-03-01T06:11:16;20.80;;;18.23;;
579;SDS011;276;48.392;9.950;2023-03-01T06:13:42;19.60;;;17.60;;
579;SDS011;276;48.392;9.950;2023-03-01T06:16:11;22.30;;;18.67;;
579;SDS011;276;48.392;9.950;2023-03-01T06:18:40;22.17;;;19.80;;
579;SDS011;276;48.392;9.950;2023-03-01T06:21:06;20.87;;;18.83;;
579;SDS011;276;48.392;9.950;2023-03-01T06:23:32;22.97;;;18.13;;
579;SDS011;276;48.392;9.950;2023-03-01T06:26:04;19.80;;;17.80;;
579;SDS011;276;48.392;9.950;2023-03-01T06:28:31;22.53;;;19.10;;
579;SDS011;276;48.392;9.950;2023-03-01T06:30:57;25.23;;;20.50;;
579;SDS011;276;48.392;9.950;2023-03-01T06:33:24;21.23;;;18.13;;
579;SDS011;276;48.392;9.950;2023-03-01T06:35:55;24.30;;;20.03;;
579;SDS011;276;48.392;9.950;2023-03-01T06:38:21;20.03;;;17.93;;
579;SDS011;276;48.392;9.950;2023-03-01T06:40:55;21.23;;;19.07;;
579;SDS011;276;48.392;9.950;2023-03-01T06:43:21;22.93;;;19.90;;
579;SDS011;276;48.392;9.950;2023-03-01T06:45:48;20.90;;;18.73;;
579;SDS011;276;48.392;9.950;2023-03-01T06:48:14;20.53;;;18.40;;
579;SDS011;276;48.392;9.950;2023-03-01T06:50:39;22.13;;;19.83;;
579;SDS011;276;48.392;9.950;2023-03-01T06:53:09;23.43;;;19.80;;
579;SDS011;276;48.392;9.950;2023-03-01T06:55:35;22.83;;;19.47;;
579;SDS011;276;48.392;9.950;2023-03-01T06:58:03;21.40;;;18.97;;
579;SDS011;276;48.392;9.950;2023-03-01T07:00:31;24.60;;;21.50;;
579;SDS011;276;48.392;9.950;2023-03-01T07:03:02;25.47;;;21.93;;
579;SDS011;276;48.392;9.950;2023-03-01T07:05:30;22.43;;;18.80;;
579;SDS011;276;48.392;9.950;2023-03-01T07:08:01;21.27;;;19.17;;
579;SDS011;276;48.392;9.950;2023-03-01T07:10:29;22.03;;;19.33;;
579;SDS011;276;48.392;9.950;2023-03-01T07:12:58;22.03;;;19.50;;
579;SDS011;276;48.392;9.950;2023-03-01T07:15:26;20.93;;;18.50;;
579;SDS011;276;48.392;9.950;2023-03-01T07:17:52;21.47;;;19.00;;
579;SDS011;276;48.392;9.950;2023-03-01T07:20:18;23.37;;;20.20;;
579;SDS011;276;48.392;9.950;2023-03-01T07:22:49;25.37;;;21.10;;
579;SDS011;276;48.392;9.950;2023-03-01T07:25:15;23.40;;;21.00;;
579;SDS011;276;48.392;9.950;2023-03-01T07:27:43;24.17;;;20.10;;
579;SDS011;276;48.392;9.950;2023-03-01T07:30:11;25.30;;;20.73;;
579;SDS011;276;48.392;9.950;2023-03-01T07:32:39;23.07;;;20.27;;
579;SDS011;276;48.392;9.950;2023-03-01T07:35:05;24.20;;;21.57;;
579;SDS011;276;48.392;9.950;2023-03-01T07:37:31;22.60;;;20.20;;
579;SDS011;276;48.392;9.950;2023-03-01T07:39:56;21.33;;;18.90;;
579;SDS011;276;48.392;9.950;2023-03-01T07:42:25;22.27;;;20.00;;
579;SDS011;276;48.392;9.950;2023-03-01T07:44:50;26.73;;;20.47;;
579;SDS011;276;48.392;9.950;2023-03-01T07:47:18;31.17;;;24.33;;
579;SDS011;276;48.392;9.950;2023-03-01T07:49:46;21.37;;;19.17;;
579;SDS011;276;48.392;9.950;2023-03-01T07:52:12;26.33;;;22.53;;
579;SDS011;276;48.392;9.950;2023-03-01T07:54:42;25.13;;;20.70;;
579;SDS011;276;48.392;9.950;2023-03-01T07:57:10;22.63;;;20.30;;
579;SDS011;276;48.392;9.950;2023-03-01T07:59:38;22.60;;;18.83;;
579;SDS011;276;48.392;9.950;2023-03-01T08:02:06;24.50;;;20.60;;
579;SDS011;276;48.392;9.950;2023-03-01T08:04:32;27.00;;;20.93;;
579;SDS011;276;48.392;9.950;2023-03-01T08:07:00;28.20;;;22.07;;
579;SDS011;276;48.392;9.950;2023-03-01T08:09:25;21.97;;;19.73;;
579;SDS011;276;48.392;9.950;2023-03-01T08:11:56;23.47;;;20.03;;
579;SDS011;276;48.392;9.950;2023-03-01T08:14:24;23.30;;;20.50;;
579;SDS011;276;48.392;9.950;2023-03-01T08:16:50;22.53;;;20.03;;
579;SDS011;276;48.392;9.950;2023-03-01T08:19:16;21.80;;;19.50;;
579;SDS011;276;48.392;9.950;2023-03-01T08:21:44;27.53;;;23.63;;
579;SDS011;276;48.392;9.950;2023-03-01T08:24:09;31.53;;;24.53;;
579;SDS011;276;48.392;9.950;2023-03-01T08:26:37;26.00;;;23.07;;
579;SDS011;276;48.392;9.950;2023-03-01T08:29:03;24.07;;;20.00;;
579;SDS011;276;48.392;9.950;2023-03-01T08:31:30;26.57;;;20.87;;
579;SDS011;276;48.392;9.950;2023-03-01T08:34:01;24.67;;;21.47;;
579;SDS011;276;48.392;9.950;2023-03-01T08:36:32;22.93;;;20.50;;
579;SDS011;276;48.392;9.950;2023-03-01T08:39:00;21.70;;;19.33;;
579;SDS011;276;48.392;9.950;2023-03-01T08:41:26;29.40;;;21.10;;
579;SDS011;276;48.392;9.950;2023-03-01T08:43:56;24.50;;;22.07;;
579;SDS011;276;48.392;9.950;2023-03-01T08:46:29;25.80;;;21.23;;
579;SDS011;276;48.392;9.950;2023-03-01T08:48:59;26.23;;;23.17;;
579;SDS011;276;48.392;9.950;2023-03-01T08:51:27;24.17;;;21.60;;
579;SDS011;276;48.392;9.950;2023-03-01T08:53:57;26.97;;;21.83;;
579;SDS011;276;48.392;9.950;2023-03-01T08:56:23;25.33;;;20.80;;
579;SDS011;276;48.392;9.950;2023-03-01T08:58:50;23.13;;;20.00;;
579;SDS011;276;48.392;9.950;2023-03-01T09:01:17;23.67;;;20.20;;
579;SDS011;276;48.392;9.950;2023-03-01T09:03:44;24.63;;;20.50;;
579;SDS011;276;48.392;9.950;2023-03-01T09:06:10;24.40;;;20.77;;
579;SDS011;276;48.392;9.950;2023-03-01T09:08:37;19.93;;;18.03;;
579;SDS011;276;48.392;9.950;2023-03-01T09:11:04;22.53;;;19.93;;
579;SDS011;276;48.392;9.950;2023-03-01T09:13:31;27.93;;;22.43;;
579;SDS011;276;48.392;9.950;2023-03-01T09:15:57;26.47;;;21.43;;
579;SDS011;276;48.392;9.950;2023-03-01T09:18:23;42.33;;;28.27;;
579;SDS011;276;48.392;9.950;2023-03-01T09:20:49;28.70;;;21.37;;
579;SDS011;276;48.392;9.950;2023-03-01T09:23:21;23.40;;;20.83;;
579;SDS011;276;48.392;9.950;2023-03-01T09:25:48;26.00;;;20.93;;
579;SDS011;276;48.392;9.950;2023-03-01T09:28:14;24.83;;;19.60;;
579;SDS011;276;48.392;9.950;2023-03-01T09:30:40;26.87;;;22.13;;
579;SDS011;276;48.392;9.950;2023-03-01T09:33:08;27.83;;;21.97;;
579;SDS011;276;48.392;9.950;2023-03-01T09:35:39;25.20;;;21.30;;
579;SDS011;276;48.392;9.950;2023-03-01T09:38:11;23.13;;;20.90;;
579;SDS011;276;48.392;9.950;2023-03-01T09:40:41;23.67;;;20.50;;
579;SDS011;276;48.392;9.950;2023-03-01T09:46:05;29.33;;;20.13;;
579;SDS011;276;48.392;9.950;2023-03-01T09:48:38;24.13;;;21.53;;
579;SDS011;276;48.392;9.950;2023-03-01T09:51:16;24.57;;;22.00;;
579;SDS011;276;48.392;9.950;2023-03-01T09:53:44;24.40;;;21.80;;
579;SDS011;276;48.392;9.950;2023-03-01T10:09:40;26.50;;;22.20;;
579;SDS011;276;48.392;9.950;2023-03-01T10:12:10;24.60;;;20.50;;
579;SDS011;276;48.392;9.950;2023-03-01T10:17:26;24.93;;;20.70;;
579;SDS011;276;48.392;9.950;2023-03-01T10:19:56;24.40;;;21.50;;
579;SDS011;276;48.392;9.950;2023-03-01T10:22:48;27.00;;;21.30;;
579;SDS011;276;48.392;9.950;2023-03-01T10:25:23;25.87;;;22.77;;
579;SDS011;276;48.392;9.950;2023-03-01T10:27:54;23.97;;;19.37;;
579;SDS011;276;48.392;9.950;2023-03-01T10:30:32;24.97;;;22.30;;
579;SDS011;276;48.392;9.950;2023-03-01T10:33:08;26.53;;;21.80;;
579;SDS011;276;48.392;9.950;2023-03-01T10:35:47;25.30;;;20.90;;
579;SDS011;276;48.392;9.950;2023-03-01T10:38:13;24.10;;;21.40;;
579;SDS011;276;48.392;9.950;2023-03-01T10:40:53;24.07;;;21.43;;
579;SDS011;276;48.392;9.950;2023-03-01T10:43:48;21.63;;;18.90;;
579;SDS011;276;48.392;9.950;2023-03-01T10:46:29;24.50;;;20.87;;
579;SDS011;276;48.392;9.950;2023-03-01T10:51:46;22.17;;;19.93;;
579;SDS011;276;48.392;9.950;2023-03-01T10:56:49;23.33;;;20.83;;
579;SDS011;276;48.392;9.950;2023-03-01T10:59:38;23.00;;;20.57;;
579;SDS011;276;48.392;9.950;2023-03-01T11:05:16;23.37;;;20.87;;
579;SDS011;276;48.392;9.950;2023-03-01T11:10:31;24.23;;;21.73;;
579;SDS011;276;48.392;9.950;2023-03-01T11:13:08;23.60;;;21.20;;
579;SDS011;276;48.392;9.950;2023-03-01T11:15:57;25.60;;;22.93;;
579;SDS011;276;48.392;9.950;2023-03-01T11:18:30;29.13;;;22.97;;
579;SDS011;276;48.392;9.950;2023-03-01T11:20:59;23.47;;;21.17;;
579;SDS011;276;48.392;9.950;2023-03-01T11:23:27;22.13;;;20.23;;
579;SDS011;276;48.392;9.950;2023-03-01T11:25:54;23.57;;;21.30;;
579;SDS011;276;48.392;9.950;2023-03-01T11:28:24;23.00;;;20.63;;
579;SDS011;276;48.392;9.950;2023-03-01T11:31:08;21.13;;;18.27;;
579;SDS011;276;48.392;9.950;2023-03-01T11:33:47;25.30;;;22.83;;
579;SDS011;276;48.392;9.950;2023-03-01T11:36:35;22.63;;;20.57;;
579;SDS011;276;48.392;9.950;2023-03-01T11:42:02;23.73;;;21.30;;
579;SDS011;276;48.392;9.950;2023-03-01T11:44:35;23.97;;;21.53;;
579;SDS011;276;48.392;9.950;2023-03-01T11:58:27;25.00;;;22.47;;
579;SDS011;276;48.392;9.950;2023-03-01T12:08:57;26.60;;;23.80;;
579;SDS011;276;48.392;9.950;2023-03-01T12:11:50;23.23;;;20.73;;
579;SDS011;276;48.392;9.950;2023-03-01T12:23:00;23.47;;;21.10;;
579;SDS011;276;48.392;9.950;2023-03-01T12:38:10;23.90;;;21.53;;
579;SDS011;276;48.392;9.950;2023-03-01T12:51:24;24.17;;;21.77;;
579;SDS011;276;48.392;9.950;2023-03-01T12:53:53;21.03;;;19.03;;
579;SDS011;276;48.392;9.950;2023-03-01T12:56:24;24.57;;;22.07;;
579;SDS011;276;48.392;9.950;2023-03-01T13:12:47;29.97;;;24.73;;
579;SDS011;276;48.392;9.950;2023-03-01T13:15:24;21.83;;;19.80;;
579;SDS011;276;48.392;9.950;2023-03-01T13:20:33;26.93;;;23.87;;
579;SDS011;276;48.392;9.950;2023-03-01T13:31:00;26.97;;;21.57;;
579;SDS011;276;48.392;9.950;2023-03-01T13:35:53;25.33;;;21.13;;
579;SDS011;276;48.392;9.950;2023-03-01T13:46:48;23.97;;;21.53;;
579;SDS011;276;48.392;9.950;2023-03-01T13:49:16;24.17;;;21.70;;
579;SDS011;276;48.392;9.950;2023-03-01T13:51:49;23.53;;;20.90;;
579;SDS011;276;48.392;9.950;2023-03-01T13:54:16;24.70;;;22.20;;
579;SDS011;276;48.392;9.950;2023-03-01T13:56:55;23.13;;;20.80;;
579;SDS011;276;48.392;9.950;2023-03-01T13:59:27;24.70;;;22.10;;
579;SDS011;276;48.392;9.950;2023-03-01T14:01:56;24.07;;;21.57;;
579;SDS011;276;48.392;9.950;2023-03-01T14:04:24;27.90;;;22.90;;
579;SDS011;276;48.392;9.950;2023-03-01T14:07:08;21.57;;;19.43;;
579;SDS011;276;48.392;9.950;2023-03-01T14:09:59;24.07;;;20.50;;
579;SDS011;276;48.392;9.950;2023-03-01T14:15:09;23.60;;;21.07;;
579;SDS011;276;48.392;9.950;2023-03-01T14:18:04;22.70;;;20.37;;
579;SDS011;276;48.392;9.950;2023-03-01T14:20:44;23.77;;;21.40;;
579;SDS011;276;48.392;9.950;2023-03-01T14:23:18;21.90;;;19.60;;
579;SDS011;276;48.392;9.950;2023-03-01T14:25:48;22.80;;;20.37;;
579;SDS011;276;48.392;9.950;2023-03-01T14:28:22;22.40;;;20.00;;
579;SDS011;276;48.392;9.950;2023-03-01T14:30:54;23.90;;;21.40;;
579;SDS011;276;48.392;9.950;2023-03-01T14:35:55;20.97;;;18.73;;
579;SDS011;276;48.392;9.950;2023-03-01T14:38:30;21.13;;;18.70;;
579;SDS011;276;48.392;9.950;2023-03-01T14:41:07;24.20;;;19.70;;
579;SDS011;276;48.392;9.950;2023-03-01T14:43:44;24.90;;;20.70;;
579;SDS011;276;48.392;9.950;2023-03-01T14:48:54;25.87;;;21.57;;
579;SDS011;276;48.392;9.950;2023-03-01T14:51:35;23.70;;;20.13;;
579;SDS011;276;48.392;9.950;2023-03-01T14:54:20;28.07;;;22.97;;
579;SDS011;276;48.392;9.950;2023-03-01T14:56:57;24.33;;;21.87;;
579;SDS011;276;48.392;9.950;2023-03-01T14:59:26;21.90;;;19.60;;
579;SDS011;276;48.392;9.950;2023-03-01T15:01:56;21.47;;;19.27;;
579;SDS011;276;48.392;9.950;2023-03-01T15:04:23;21.63;;;18.83;;
579;SDS011;276;48.392;9.950;2023-03-01T15:06:52;21.40;;;19.20;;
579;SDS011;276;48.392;9.950;2023-03-01T15:09:32;23.00;;;19.10;;
579;SDS011;276;48.392;9.950;2023-03-01T15:12:00;20.40;;;18.27;;
579;SDS011;276;48.392;9.950;2023-03-01T15:14:47;21.47;;;19.33;;
579;SDS011;276;48.392;9.950;2023-03-01T15:17:35;24.20;;;20.57;;
579;SDS011;276;48.392;9.950;2023-03-01T15:20:02;25.47;;;22.87;;
579;SDS011;276;48.392;9.950;2023-03-01T15:22:43;23.33;;;20.30;;
579;SDS011;276;48.392;9.950;2023-03-01T15:25:23;22.50;;;19.70;;
579;SDS011;276;48.392;9.950;2023-03-01T15:27:51;23.07;;;20.73;;
579;SDS011;276;48.392;9.950;2023-03-01T15:30:32;23.97;;;20.87;;
579;SDS011;276;48.392;9.950;2023-03-01T15:35:55;18.03;;;16.13;;
579;SDS011;276;48.392;9.950;2023-03-01T15:40:58;19.97;;;17.87;;
579;SDS011;276;48.392;9.950;2023-03-01T15:44:14;21.07;;;18.97;;
579;SDS011;276;48.392;9.950;2023-03-01T15:49:42;21.70;;;19.53;;
579;SDS011;276;48.392;9.950;2023-03-01T15:51:50;22.10;;;19.90;;
579;SDS011;276;48.392;9.950;2023-03-01T15:54:20;22.73;;;20.43;;
579;SDS011;276;48.392;9.950;2023-03-01T15:56:48;22.77;;;20.40;;
579;SDS011;276;48.392;9.950;2023-03-01T15:59:16;24.03;;;21.53;;
579;SDS011;276;48.392;9.950;2023-03-01T16:01:49;24.40;;;20.50;;
579;SDS011;276;48.392;9.950;2023-03-01T16:04:18;23.80;;;21.20;;
579;SDS011;276;48.392;9.950;2023-03-01T16:06:50;24.27;;;19.17;;
579;SDS011;276;48.392;9.950;2023-03-01T16:09:23;25.30;;;19.80;;
579;SDS011;276;48.392;9.950;2023-03-01T16:11:50;23.97;;;20.23;;
579;SDS011;276;48.392;9.950;2023-03-01T16:14:19;23.50;;;20.40;;
579;SDS011;276;48.392;9.950;2023-03-01T16:16:50;46.47;;;23.90;;
579;SDS011;276;48.392;9.950;2023-03-01T16:19:20;26.43;;;19.13;;
579;SDS011;276;48.392;9.950;2023-03-01T16:21:45;20.13;;;18.20;;
579;SDS011;276;48.392;9.950;2023-03-01T16:24:14;23.50;;;20.23;;
579;SDS011;276;48.392;9.950;2023-03-01T16:26:40;24.50;;;21.90;;
579;SDS011;276;48.392;9.950;2023-03-01T16:29:07;21.50;;;18.90;;
579;SDS011;276;48.392;9.950;2023-03-01T16:31:33;21.17;;;18.60;;
579;SDS011;276;48.392;9.950;2023-03-01T16:33:59;23.20;;;20.70;;
579;SDS011;276;48.392;9.950;2023-03-01T16:36:27;22.03;;;19.80;;
579;SDS011;276;48.392;9.950;2023-03-01T16:38:56;19.80;;;17.70;;
579;SDS011;276;48.392;9.950;2023-03-01T16:41:24;20.97;;;18.90;;
579;SDS011;276;48.392;9.950;2023-03-01T16:43:54;23.00;;;18.90;;
579;SDS011;276;48.392;9.950;2023-03-01T16:46:21;21.57;;;19.27;;
579;SDS011;276;48.392;9.950;2023-03-01T16:48:51;19.33;;;17.00;;
579;SDS011;276;48.392;9.950;2023-03-01T16:51:20;18.17;;;16.37;;
579;SDS011;276;48.392;9.950;2023-03-01T16:53:49;18.53;;;16.77;;
579;SDS011;276;48.392;9.950;2023-03-01T16:56:16;18.53;;;16.70;;
579;SDS011;276;48.392;9.950;2023-03-01T16:58:42;21.33;;;18.10;;
579;SDS011;276;48.392;9.950;2023-03-01T17:01:15;20.37;;;17.73;;
579;SDS011;276;48.392;9.950;2023-03-01T17:03:46;21.70;;;19.00;;
579;SDS011;276;48.392;9.950;2023-03-01T17:06:15;19.13;;;17.30;;
579;SDS011;276;48.392;9.950;2023-03-01T17:08:44;18.37;;;16.53;;
579;SDS011;276;48.392;9.950;2023-03-01T17:11:15;25.30;;;19.23;;
579;SDS011;276;48.392;9.950;2023-03-01T17:13:42;22.97;;;20.47;;
579;SDS011;276;48.392;9.950;2023-03-01T17:16:13;25.57;;;19.13;;
579;SDS011;276;48.392;9.950;2023-03-01T17:18:41;20.20;;;17.27;;
579;SDS011;276;48.392;9.950;2023-03-01T17:21:09;21.43;;;17.60;;
579;SDS011;276;48.392;9.950;2023-03-01T17:23:36;19.33;;;16.67;;
579;SDS011;276;48.392;9.950;2023-03-01T17:26:04;17.57;;;15.60;;
579;SDS011;276;48.392;9.950;2023-03-01T17:28:33;17.50;;;15.83;;
579;SDS011;276;48.392;9.950;2023-03-01T17:31:03;20.40;;;16.40;;
579;SDS011;276;48.392;9.950;2023-03-01T17:33:32;18.70;;;17.00;;
579;SDS011;276;48.392;9.950;2023-03-01T17:35:58;19.80;;;17.80;;
579;SDS011;276;48.392;9.950;2023-03-01T17:38:25;18.57;;;16.67;;
579;SDS011;276;48.392;9.950;2023-03-01T17:40:51;19.70;;;17.57;;
579;SDS011;276;48.392;9.950;2023-03-01T17:43:18;18.43;;;15.90;;
579;SDS011;276;48.392;9.950;2023-03-01T17:45:46;17.70;;;15.90;;
579;SDS011;276;48.392;9.950;2023-03-01T17:48:18;17.87;;;15.47;;
579;SDS011;276;48.392;9.950;2023-03-01T17:50:44;16.60;;;14.90;;
579;SDS011;276;48.392;9.950;2023-03-01T17:53:10;17.90;;;16.20;;
579;SDS011;276;48.392;9.950;2023-03-01T17:55:36;17.83;;;16.10;;